createdAt,value
2019-03-18T00:02:32.452Z,5.50
2019-03-18T00:05:13.891Z,5.40
2019-03-18T00:07:55.428Z,5.40
2019-03-18T00:10:37.080Z,5.50
2019-03-18T00:13:19.119Z,5.60
2019-03-18T00:16:00.445Z,5.50
2019-03-18T00:18:41.949Z,4.90
2019-03-18T00:21:22.656Z,5.10
2019-03-18T00:24:04.023Z,5.30
2019-03-18T00:26:45.311Z,5.30
2019-03-18T00:29:27.044Z,5.10
2019-03-18T00:32:07.852Z,5.10
2019-03-18T00:34:47.743Z,5.00
2019-03-18T00:43:26.579Z,4.90
2019-03-18T00:46:07.674Z,5.10
2019-03-18T00:48:50.743Z,4.90
2019-03-18T00:51:31.914Z,5.10
2019-03-18T00:54:13.685Z,4.90
2019-03-18T00:56:55.015Z,5.20
2019-03-18T00:59:36.770Z,5.20
2019-03-18T01:02:17.795Z,4.90
2019-03-18T01:04:58.840Z,4.90
2019-03-18T01:07:39.600Z,4.80
2019-03-18T01:10:20.508Z,5.00
2019-03-18T01:13:01.662Z,4.90
2019-03-18T01:15:43.526Z,4.90
2019-03-18T01:18:24.713Z,5.00
2019-03-18T01:21:06.278Z,5.10
2019-03-18T01:23:47.708Z,5.20
2019-03-18T01:26:28.965Z,4.90
2019-03-18T01:29:10.009Z,5.10
2019-03-18T01:31:51.077Z,5.50
2019-03-18T01:34:32.507Z,5.20
2019-03-18T01:37:13.265Z,5.50
2019-03-18T01:39:54.305Z,5.20
2019-03-18T01:42:35.778Z,4.90
2019-03-18T01:45:17.232Z,5.20
2019-03-18T01:47:59.104Z,5.20
2019-03-18T01:50:40.544Z,5.20
2019-03-18T01:53:20.216Z,5.10
2019-03-18T01:56:08.866Z,5.10
2019-03-18T02:01:53.026Z,4.90
2019-03-18T02:04:42.153Z,5.00
2019-03-18T02:07:30.744Z,5.50
2019-03-18T02:13:28.418Z,5.10
2019-03-18T02:16:17.455Z,5.30
2019-03-18T02:19:06.069Z,5.20
2019-03-18T02:21:54.638Z,5.10
2019-03-18T02:24:43.356Z,5.00
2019-03-18T02:27:32.168Z,5.20
2019-03-18T02:36:15.132Z,5.20
2019-03-18T02:39:24.109Z,5.00
2019-03-18T02:42:13.133Z,4.90
2019-03-18T02:44:54.075Z,5.20
2019-03-18T02:47:34.888Z,5.00
2019-03-18T02:50:16.161Z,5.00
2019-03-18T02:52:57.855Z,5.20
2019-03-18T02:55:39.360Z,5.40
2019-03-18T02:58:20.847Z,5.30
2019-03-18T03:01:02.356Z,5.30
2019-03-18T03:03:42.607Z,5.50
2019-03-18T03:06:31.457Z,5.20
2019-03-18T03:09:20.155Z,5.20
2019-03-18T03:12:08.765Z,5.50
2019-03-18T03:17:51.016Z,5.20
2019-03-18T03:20:54.281Z,5.50
2019-03-18T03:23:42.084Z,5.50
2019-03-18T03:26:20.775Z,5.50
2019-03-18T03:29:09.502Z,5.60
2019-03-18T03:31:58.429Z,6.10
2019-03-18T03:37:56.426Z,6.00
2019-03-18T03:46:46.300Z,6.10
2019-03-18T03:49:27.625Z,6.30
2019-03-18T03:52:09.068Z,5.90
2019-03-18T03:54:50.615Z,5.80
2019-03-18T03:57:32.117Z,5.70
2019-03-18T04:00:13.737Z,5.90
2019-03-18T04:06:14.455Z,5.70
2019-03-18T04:08:56.469Z,6.00
2019-03-18T04:11:37.860Z,5.60
2019-03-18T04:14:18.733Z,5.50
2019-03-18T04:17:02.496Z,5.50
2019-03-18T04:19:43.093Z,5.50
2019-03-18T04:22:24.484Z,5.70
2019-03-18T04:25:05.892Z,5.20
2019-03-18T04:27:46.757Z,5.20
2019-03-18T04:30:28.255Z,5.40
2019-03-18T04:33:10.053Z,5.50
2019-03-18T04:35:51.260Z,5.20
2019-03-18T04:38:32.867Z,5.10
2019-03-18T04:41:14.509Z,5.50
2019-03-18T04:43:56.391Z,5.50
2019-03-18T04:46:37.289Z,5.40
2019-03-18T04:49:18.689Z,5.50
2019-03-18T04:51:59.867Z,5.30
2019-03-18T04:54:41.388Z,5.20
2019-03-18T04:57:22.760Z,5.20
2019-03-18T05:00:04.454Z,4.90
2019-03-18T05:02:45.585Z,5.00
2019-03-18T05:05:27.332Z,4.90
2019-03-18T05:08:08.536Z,5.20
2019-03-18T05:10:50.147Z,5.10
2019-03-18T05:13:31.617Z,5.20
2019-03-18T05:16:12.729Z,5.50
2019-03-18T05:18:54.145Z,5.20
2019-03-18T05:21:35.335Z,5.40
2019-03-18T05:24:16.366Z,5.20
2019-03-18T05:26:57.886Z,5.30
2019-03-18T05:29:38.722Z,5.40
2019-03-18T05:32:19.732Z,5.50
2019-03-18T05:34:59.403Z,5.70
2019-03-18T05:37:48.016Z,5.50
2019-03-18T05:40:36.763Z,5.50
2019-03-18T05:46:17.518Z,5.30
2019-03-18T05:48:58.653Z,5.60
2019-03-18T05:51:39.953Z,5.80
2019-03-18T05:54:21.498Z,5.50
2019-03-18T05:57:02.406Z,5.80
2019-03-18T05:59:44.238Z,5.50
2019-03-18T06:02:25.460Z,5.20
2019-03-18T06:05:07.061Z,5.80
2019-03-18T06:07:48.672Z,5.50
2019-03-18T06:10:30.233Z,5.80
2019-03-18T06:13:11.751Z,5.60
2019-03-18T06:15:53.269Z,5.30
2019-03-18T06:18:34.456Z,5.80
2019-03-18T06:21:16.001Z,5.30
2019-03-18T06:23:57.632Z,5.30
2019-03-18T06:26:39.073Z,5.10
2019-03-18T06:29:19.819Z,5.40
2019-03-18T06:32:01.340Z,5.80
2019-03-18T06:34:43.114Z,5.70
2019-03-18T06:37:24.009Z,5.10
2019-03-18T06:40:05.630Z,5.20
2019-03-18T06:42:47.006Z,5.40
2019-03-18T06:45:28.293Z,5.20
2019-03-18T06:48:09.510Z,5.20
2019-03-18T06:50:50.275Z,5.20
2019-03-18T06:53:31.871Z,4.90
2019-03-18T06:56:12.693Z,5.10
2019-03-18T06:58:54.245Z,5.40
2019-03-18T07:01:35.326Z,5.20
2019-03-18T07:04:16.833Z,5.50
2019-03-18T07:06:58.177Z,5.50
2019-03-18T07:09:37.925Z,5.50
2019-03-18T07:15:25.411Z,6.10
2019-03-18T07:18:27.951Z,5.80
2019-03-18T07:21:04.339Z,5.80
2019-03-18T07:29:57.258Z,5.80
2019-03-18T07:35:45.375Z,5.90
2019-03-18T07:47:15.866Z,6.40
2019-03-18T07:49:56.971Z,6.40
2019-03-18T07:52:38.620Z,6.40
2019-03-18T07:55:18.360Z,6.40
2019-03-18T08:01:16.484Z,6.50
2019-03-18T08:04:05.080Z,6.70
2019-03-18T08:06:53.743Z,6.60
2019-03-18T08:09:42.628Z,6.90
2019-03-18T08:12:31.674Z,6.60
2019-03-18T08:15:34.341Z,6.50
2019-03-18T08:18:10.876Z,6.80
2019-03-18T08:21:13.723Z,6.80
2019-03-18T08:32:35.852Z,7.30
2019-03-18T08:38:33.720Z,7.30
2019-03-18T08:41:22.381Z,7.40
2019-03-18T08:44:25.981Z,7.50
2019-03-18T08:46:54.219Z,7.70
2019-03-18T08:49:35.671Z,7.70
2019-03-18T08:52:17.124Z,7.60
2019-03-18T08:54:58.927Z,7.60
2019-03-18T08:57:39.905Z,7.70
2019-03-18T09:00:21.590Z,7.80
2019-03-18T09:03:02.649Z,7.70
2019-03-18T09:05:43.481Z,7.70
2019-03-18T09:08:26.490Z,7.50
2019-03-18T09:11:07.621Z,7.40
2019-03-18T09:13:49.004Z,7.30
2019-03-18T09:16:30.331Z,7.20
2019-03-18T09:19:11.804Z,7.50
2019-03-18T09:21:53.398Z,7.60
2019-03-18T09:24:34.844Z,8.00
2019-03-18T09:27:15.662Z,8.10
2019-03-18T09:29:56.509Z,8.20
2019-03-18T09:32:38.188Z,8.10
2019-03-18T09:35:19.802Z,8.30
2019-03-18T09:38:01.287Z,8.40
2019-03-18T09:40:42.762Z,8.50
2019-03-18T09:43:24.325Z,8.80
2019-03-18T09:46:05.260Z,8.40
2019-03-18T09:48:46.747Z,8.50
2019-03-18T09:51:28.225Z,8.50
2019-03-18T09:54:09.863Z,8.50
2019-03-18T10:00:12.155Z,8.70
2019-03-18T10:02:52.499Z,8.80
2019-03-18T10:05:33.960Z,8.80
2019-03-18T10:08:15.256Z,8.80
2019-03-18T10:10:56.794Z,8.80
2019-03-18T10:13:37.880Z,8.90
2019-03-18T10:16:18.698Z,9.10
2019-03-18T10:19:00.074Z,9.10
2019-03-18T10:21:41.665Z,9.10
2019-03-18T10:24:23.093Z,9.10
2019-03-18T10:27:04.684Z,9.00
2019-03-18T10:29:45.734Z,9.00
2019-03-18T10:32:27.256Z,8.80
2019-03-18T10:35:08.696Z,8.70
2019-03-18T10:37:50.178Z,8.90
2019-03-18T10:40:31.804Z,8.90
2019-03-18T10:43:13.185Z,8.80
2019-03-18T10:45:53.988Z,9.00
2019-03-18T10:48:35.089Z,9.20
2019-03-18T10:51:15.844Z,9.20
2019-03-18T10:53:57.521Z,9.20
2019-03-18T10:56:41.128Z,9.30
2019-03-18T10:59:21.531Z,9.50
2019-03-18T11:02:02.247Z,9.80
2019-03-18T11:04:43.455Z,10.00
2019-03-18T11:07:24.925Z,10.50
2019-03-18T11:10:06.552Z,10.40
2019-03-18T11:12:47.872Z,10.20
2019-03-18T11:15:28.704Z,10.20
2019-03-18T11:18:09.323Z,9.50
2019-03-18T11:20:50.537Z,9.70
2019-03-18T11:23:32.139Z,9.60
2019-03-18T11:26:12.169Z,9.10
2019-03-18T11:41:10.812Z,10.00
2019-03-18T11:43:47.778Z,10.30
2019-03-18T11:46:30.194Z,10.70
2019-03-18T11:49:11.577Z,11.00
2019-03-18T11:51:53.407Z,11.30
2019-03-18T11:54:34.930Z,11.10
2019-03-18T11:57:16.700Z,11.10
2019-03-18T11:59:56.377Z,11.20
2019-03-18T12:02:45.575Z,11.20
2019-03-18T12:08:43.334Z,10.50
2019-03-18T12:11:32.126Z,10.50
2019-03-18T12:17:16.185Z,9.80
2019-03-18T12:20:05.145Z,9.60
2019-03-18T12:22:54.063Z,9.70
2019-03-18T12:25:42.663Z,9.70
2019-03-18T12:28:31.884Z,9.50
2019-03-18T12:31:20.469Z,9.60
2019-03-18T12:34:09.147Z,9.50
2019-03-18T12:39:57.354Z,9.30
2019-03-18T12:45:41.648Z,9.80
2019-03-18T12:48:24.851Z,9.50
2019-03-18T12:51:06.121Z,9.50
2019-03-18T12:53:47.712Z,9.70
2019-03-18T12:56:29.189Z,10.10
2019-03-18T12:59:10.927Z,9.80
2019-03-18T13:01:52.036Z,9.80
2019-03-18T13:04:33.979Z,9.50
2019-03-18T13:07:33.793Z,9.60
2019-03-18T13:10:12.601Z,9.00
2019-03-18T13:13:01.433Z,8.50
2019-03-18T13:24:46.184Z,8.80
2019-03-18T13:27:35.042Z,9.10
2019-03-18T13:30:23.746Z,9.10
2019-03-18T13:42:15.643Z,9.80
2019-03-18T13:45:04.441Z,10.20
2019-03-18T13:47:45.773Z,10.40
2019-03-18T13:50:25.504Z,10.90
2019-03-18T13:53:14.208Z,10.80
2019-03-18T14:02:11.284Z,11.30
2019-03-18T14:05:13.917Z,11.30
2019-03-18T14:08:00.127Z,11.40
2019-03-18T14:14:03.903Z,11.70
2019-03-18T14:16:40.344Z,11.60
2019-03-18T14:22:28.168Z,11.50
2019-03-18T14:28:26.240Z,11.70
2019-03-18T14:31:14.882Z,11.40
2019-03-18T14:34:17.450Z,11.00
2019-03-18T14:36:54.527Z,10.90
2019-03-18T14:45:33.851Z,11.30
2019-03-18T14:48:15.110Z,11.00
2019-03-18T14:50:55.834Z,11.00
2019-03-18T14:53:36.829Z,10.50
2019-03-18T14:56:17.692Z,10.40
2019-03-18T14:58:57.351Z,9.90
2019-03-18T15:01:45.935Z,9.50
2019-03-18T15:04:34.659Z,9.40
2019-03-18T15:07:23.379Z,9.80
2019-03-18T15:10:14.000Z,9.70
2019-03-18T15:13:02.951Z,9.60
2019-03-18T15:15:51.645Z,9.60
2019-03-18T15:18:40.486Z,9.10
2019-03-18T15:21:29.111Z,9.10
2019-03-18T15:24:18.043Z,9.10
2019-03-18T15:27:07.007Z,9.60
2019-03-18T15:30:07.797Z,10.00
2019-03-18T15:32:46.837Z,10.60
2019-03-18T15:35:47.164Z,11.60
2019-03-18T15:38:25.887Z,12.00
2019-03-18T15:41:14.461Z,12.10
2019-03-18T15:47:02.116Z,12.60
2019-03-18T15:49:50.820Z,12.80
2019-03-18T16:04:20.955Z,11.20
2019-03-18T16:07:09.681Z,11.10
2019-03-18T16:09:58.343Z,11.00
2019-03-18T16:12:58.663Z,10.80
2019-03-18T16:15:51.318Z,10.40
2019-03-18T16:18:27.640Z,10.30
2019-03-18T16:21:16.632Z,10.50
2019-03-18T16:24:05.652Z,10.60
2019-03-18T16:26:54.345Z,10.20
2019-03-18T16:32:52.172Z,9.70
2019-03-18T16:35:40.895Z,9.60
2019-03-18T16:38:29.471Z,9.60
2019-03-18T16:41:18.122Z,9.70
2019-03-18T16:44:20.795Z,9.60
2019-03-18T16:46:49.529Z,9.90
2019-03-18T16:49:30.832Z,10.00
2019-03-18T16:52:12.530Z,9.70
2019-03-18T16:54:53.961Z,9.80
2019-03-18T16:57:35.564Z,10.10
2019-03-18T17:00:16.936Z,9.90
2019-03-18T17:02:58.532Z,9.90
2019-03-18T17:05:39.819Z,10.00
2019-03-18T17:08:21.139Z,9.90
2019-03-18T17:11:01.312Z,9.90
2019-03-18T17:13:53.432Z,9.80
2019-03-18T17:22:50.138Z,9.20
2019-03-18T17:25:36.446Z,9.10
2019-03-18T17:31:20.272Z,8.80
2019-03-18T17:34:08.952Z,8.60
2019-03-18T17:36:49.843Z,8.60
2019-03-18T17:39:31.714Z,8.10
2019-03-18T17:42:12.867Z,7.80
2019-03-18T17:44:54.459Z,7.70
2019-03-18T17:47:34.463Z,7.70
2019-03-18T17:50:23.091Z,7.70
2019-03-18T17:53:12.298Z,7.70
2019-03-18T17:56:01.032Z,7.60
2019-03-18T18:01:48.365Z,7.70
2019-03-18T18:04:36.955Z,7.90
2019-03-18T18:10:55.566Z,8.20
2019-03-18T18:13:44.495Z,7.60
2019-03-18T18:16:33.249Z,7.70
2019-03-18T18:19:22.322Z,7.70
2019-03-18T18:22:11.006Z,7.40
2019-03-18T18:24:59.687Z,7.40
2019-03-18T18:27:48.193Z,7.40
2019-03-18T18:30:37.104Z,7.40
2019-03-18T18:39:20.578Z,7.30
2019-03-18T18:42:01.860Z,7.30
2019-03-18T18:44:43.372Z,7.20
2019-03-18T18:47:24.995Z,7.20
2019-03-18T18:50:06.079Z,7.10
2019-03-18T18:52:47.403Z,7.00
2019-03-18T18:55:28.936Z,7.00
2019-03-18T18:58:10.452Z,7.10
2019-03-18T19:00:51.968Z,7.10
2019-03-18T19:03:33.091Z,7.00
2019-03-18T19:06:14.421Z,7.00
2019-03-18T19:08:55.372Z,7.10
2019-03-18T19:11:37.036Z,7.10
2019-03-18T19:14:18.514Z,7.00
2019-03-18T19:17:00.481Z,7.10
2019-03-18T19:19:41.856Z,7.10
2019-03-18T19:22:23.748Z,7.00
2019-03-18T19:25:05.008Z,7.00
2019-03-18T19:27:46.491Z,7.10
2019-03-18T19:30:28.290Z,7.10
2019-03-18T19:33:09.747Z,7.00
2019-03-18T19:35:51.141Z,7.00
2019-03-18T19:38:32.080Z,7.10
2019-03-18T19:41:13.124Z,7.00
2019-03-18T19:43:54.343Z,7.30
2019-03-18T19:46:35.869Z,7.20
2019-03-18T19:49:16.761Z,7.30
2019-03-18T19:51:57.917Z,7.40
2019-03-18T19:54:39.519Z,7.40
2019-03-18T19:57:20.760Z,7.30
2019-03-18T20:00:02.334Z,7.30
2019-03-18T20:02:43.493Z,7.40
2019-03-18T20:05:25.344Z,7.30
2019-03-18T20:11:14.960Z,7.00
2019-03-18T20:13:56.432Z,7.10
2019-03-18T20:16:37.684Z,6.90
2019-03-18T20:19:19.096Z,6.80
2019-03-18T20:21:59.899Z,7.10
2019-03-18T20:24:41.582Z,6.70
2019-03-18T20:27:22.853Z,6.80
2019-03-18T20:30:04.585Z,6.70
2019-03-18T20:32:45.957Z,6.60
2019-03-18T20:35:27.091Z,6.50
2019-03-18T20:38:08.140Z,6.70
2019-03-18T20:40:49.679Z,6.50
2019-03-18T20:43:31.017Z,6.70
2019-03-18T20:46:10.742Z,6.70
2019-03-18T20:49:11.067Z,6.70
2019-03-18T20:51:50.263Z,6.40
2019-03-18T20:54:41.458Z,6.40
2019-03-18T21:00:25.456Z,6.30
2019-03-18T21:03:26.234Z,6.20
2019-03-18T21:06:04.791Z,6.20
2019-03-18T21:08:53.409Z,6.30
2019-03-18T21:17:39.648Z,6.40
2019-03-18T21:20:20.975Z,6.30
2019-03-18T21:23:02.460Z,6.40
2019-03-18T21:25:43.731Z,6.40
2019-03-18T21:28:23.741Z,6.40
2019-03-18T21:34:32.565Z,6.30
2019-03-18T21:43:18.744Z,6.40
2019-03-18T21:46:21.819Z,6.10
2019-03-18T21:48:58.277Z,5.90
2019-03-18T21:51:47.055Z,6.10
2019-03-18T21:57:45.187Z,6.20
2019-03-18T22:00:36.065Z,5.90
2019-03-18T22:03:12.562Z,5.90
2019-03-18T22:09:00.000Z,6.10
2019-03-18T22:11:48.807Z,6.10
2019-03-18T22:17:29.728Z,6.20
2019-03-18T22:20:11.615Z,6.10
2019-03-18T22:22:52.699Z,5.90
2019-03-18T22:25:34.800Z,6.20
2019-03-18T22:28:16.748Z,5.90
2019-03-18T22:30:58.488Z,6.10
2019-03-18T22:33:40.625Z,6.20
2019-03-18T22:36:22.586Z,6.00
2019-03-18T22:39:04.293Z,5.80
2019-03-18T22:41:45.194Z,6.00
2019-03-18T22:44:26.627Z,6.10
2019-03-18T22:47:08.117Z,6.10
2019-03-18T22:49:51.169Z,6.10
2019-03-18T22:52:32.330Z,6.10
2019-03-18T22:55:13.720Z,5.90
2019-03-18T22:57:55.418Z,6.10
2019-03-18T23:00:55.859Z,5.90
2019-03-18T23:03:37.348Z,5.90
2019-03-18T23:06:18.966Z,6.00
2019-03-18T23:09:00.669Z,6.20
2019-03-18T23:11:42.363Z,6.20
2019-03-18T23:14:24.040Z,6.10
2019-03-18T23:17:05.411Z,6.10
2019-03-18T23:19:46.526Z,5.90
2019-03-18T23:22:28.320Z,5.60
2019-03-18T23:25:09.529Z,5.80
2019-03-18T23:27:51.303Z,5.60
2019-03-18T23:30:32.753Z,5.90
2019-03-18T23:33:14.824Z,5.80
2019-03-18T23:35:56.163Z,5.80
2019-03-18T23:38:37.543Z,5.80
2019-03-18T23:41:17.162Z,5.80
2019-03-18T23:44:17.508Z,5.50
2019-03-18T23:46:56.040Z,5.80
2019-03-18T23:55:39.916Z,5.40
2019-03-18T23:58:21.331Z,5.40
